createdAt,value
2022-10-28T00:02:28.482Z,8.74
2022-10-28T00:07:36.019Z,8.67
2022-10-28T00:12:43.248Z,8.60
2022-10-28T00:17:56.668Z,8.53
2022-10-28T00:23:03.805Z,8.44
2022-10-28T00:28:10.973Z,8.37
2022-10-28T00:33:18.025Z,8.30
2022-10-28T00:38:25.830Z,8.23
2022-10-28T00:43:42.005Z,8.13
2022-10-28T00:48:53.552Z,8.07
2022-10-28T00:54:01.320Z,8.02
2022-10-28T00:59:15.646Z,7.96
2022-10-28T01:04:23.879Z,7.92
2022-10-28T01:09:31.101Z,7.97
2022-10-28T01:14:52.866Z,8.03
2022-10-28T01:20:11.328Z,8.03
2022-10-28T01:25:54.295Z,8.00
2022-10-28T01:31:29.933Z,8.02
2022-10-28T01:36:42.686Z,8.03
2022-10-28T01:41:58.314Z,8.03
2022-10-28T01:47:12.025Z,7.98
2022-10-28T01:52:23.848Z,7.94
2022-10-28T01:57:33.079Z,7.91
2022-10-28T02:02:41.215Z,7.92
2022-10-28T02:07:49.426Z,7.91
2022-10-28T02:12:59.309Z,7.92
2022-10-28T02:18:19.714Z,7.91
2022-10-28T02:23:37.347Z,7.90
2022-10-28T02:28:50.089Z,7.89
2022-10-28T02:34:02.611Z,7.87
2022-10-28T02:39:14.160Z,7.86
2022-10-28T02:44:25.411Z,7.83
2022-10-28T02:49:39.047Z,7.79
2022-10-28T02:54:52.724Z,7.73
2022-10-28T03:00:01.775Z,7.70
2022-10-28T03:05:11.105Z,7.63
2022-10-28T03:10:18.532Z,7.62
2022-10-28T03:15:25.670Z,7.62
2022-10-28T03:20:32.911Z,7.60
2022-10-28T03:25:40.421Z,7.54
2022-10-28T03:30:47.523Z,7.47
2022-10-28T03:35:54.907Z,7.39
2022-10-28T03:41:02.054Z,7.35
2022-10-28T03:46:09.350Z,7.34
2022-10-28T03:51:16.759Z,7.35
2022-10-28T03:56:24.040Z,7.31
2022-10-28T04:01:32.678Z,7.27
2022-10-28T04:06:40.284Z,7.27
2022-10-28T04:11:50.599Z,7.27
2022-10-28T04:16:57.794Z,7.23
2022-10-28T04:22:05.071Z,7.24
2022-10-28T04:27:12.190Z,7.29
2022-10-28T04:32:19.289Z,7.35
2022-10-28T04:37:26.791Z,7.36
2022-10-28T04:42:34.004Z,7.29
2022-10-28T04:47:41.191Z,7.21
2022-10-28T04:52:48.764Z,7.19
2022-10-28T04:58:00.865Z,7.18
2022-10-28T05:03:07.985Z,7.24
2022-10-28T05:08:15.134Z,7.31
2022-10-28T05:13:22.504Z,7.32
2022-10-28T05:18:29.704Z,7.30
2022-10-28T05:23:36.694Z,7.26
2022-10-28T05:28:44.168Z,7.21
2022-10-28T05:33:51.257Z,7.16
2022-10-28T05:38:58.489Z,7.14
2022-10-28T05:44:05.970Z,7.14
2022-10-28T05:49:13.253Z,7.18
2022-10-28T05:54:21.514Z,7.22
2022-10-28T05:59:28.728Z,7.27
2022-10-28T06:04:35.829Z,7.34
2022-10-28T06:09:43.421Z,7.43
2022-10-28T06:14:49.070Z,7.59
2022-10-28T06:19:56.174Z,7.77
2022-10-28T06:25:03.446Z,7.95
2022-10-28T06:30:13.223Z,8.19
2022-10-28T06:35:20.997Z,8.52
2022-10-28T06:40:28.432Z,8.78
2022-10-28T06:45:36.252Z,9.05
2022-10-28T06:50:45.137Z,9.30
2022-10-28T06:55:57.044Z,9.53
2022-10-28T07:01:08.136Z,9.75
2022-10-28T07:06:26.176Z,9.95
2022-10-28T07:11:33.331Z,10.14
2022-10-28T07:16:40.417Z,10.33
2022-10-28T07:21:48.505Z,10.51
2022-10-28T07:26:57.777Z,10.70
2022-10-28T07:32:05.333Z,10.87
2022-10-28T07:37:14.003Z,11.01
2022-10-28T07:42:21.180Z,11.12
2022-10-28T07:47:28.367Z,11.21
2022-10-28T07:52:35.475Z,11.31
2022-10-28T07:57:42.909Z,11.43
2022-10-28T08:02:49.992Z,11.57
2022-10-28T08:07:59.558Z,11.70
2022-10-28T08:13:07.218Z,11.87
2022-10-28T08:18:14.255Z,12.03
2022-10-28T08:23:21.357Z,12.23
2022-10-28T08:28:28.557Z,12.43
2022-10-28T08:33:36.000Z,12.65
2022-10-28T08:38:45.647Z,12.88
2022-10-28T08:44:28.201Z,13.11
2022-10-28T08:49:39.496Z,13.35
2022-10-28T08:54:51.022Z,13.56
2022-10-28T09:00:00.071Z,13.72
2022-10-28T09:05:21.514Z,13.90
2022-10-28T09:10:49.313Z,14.11
2022-10-28T09:16:07.921Z,14.31
2022-10-28T09:21:24.387Z,14.51
2022-10-28T09:26:43.153Z,14.69
2022-10-28T09:32:19.145Z,14.91
2022-10-28T09:37:49.987Z,15.13
2022-10-28T09:43:24.532Z,15.35
2022-10-28T09:48:35.697Z,15.54
2022-10-28T09:54:02.095Z,15.73
2022-10-28T09:59:13.111Z,15.91
2022-10-28T10:04:24.100Z,16.09
2022-10-28T10:09:48.694Z,16.27
2022-10-28T10:15:20.486Z,16.53
2022-10-28T10:20:27.329Z,16.73
2022-10-28T10:25:34.151Z,16.90
2022-10-28T10:30:47.128Z,17.09
2022-10-28T10:36:21.111Z,17.27
2022-10-28T10:41:38.732Z,17.46
2022-10-28T10:46:45.504Z,17.71
2022-10-28T10:52:17.869Z,18.00
2022-10-28T10:57:26.116Z,18.24
2022-10-28T11:02:55.029Z,18.48
2022-10-28T11:08:06.661Z,18.75
2022-10-28T11:13:27.811Z,19.04
2022-10-28T11:18:43.849Z,19.42
2022-10-28T11:24:01.711Z,19.72
2022-10-28T11:29:26.926Z,20.03
2022-10-28T11:34:52.950Z,20.28
2022-10-28T11:40:16.854Z,20.57
2022-10-28T11:45:32.130Z,20.86
2022-10-28T11:50:50.375Z,21.59
2022-10-28T11:56:07.421Z,22.82
2022-10-28T12:01:30.666Z,23.94
2022-10-28T12:06:56.340Z,24.89
2022-10-28T12:12:17.772Z,25.58
2022-10-28T12:17:35.292Z,26.51
2022-10-28T12:23:03.794Z,27.43
2022-10-28T12:28:21.520Z,28.11
2022-10-28T12:33:34.314Z,28.38
2022-10-28T12:38:45.122Z,28.92
2022-10-28T12:43:57.439Z,29.14
2022-10-28T12:49:12.064Z,29.33
2022-10-28T12:54:23.177Z,29.47
2022-10-28T12:59:53.238Z,29.54
2022-10-28T13:05:23.074Z,29.77
2022-10-28T13:10:54.718Z,29.85
2022-10-28T13:16:36.567Z,29.79
2022-10-28T13:22:19.215Z,29.98
2022-10-28T13:27:26.500Z,30.13
2022-10-28T13:32:39.399Z,30.22
2022-10-28T13:37:50.212Z,30.20
2022-10-28T13:42:57.441Z,30.23
2022-10-28T13:48:35.064Z,30.14
2022-10-28T13:53:53.148Z,29.97
2022-10-28T13:59:02.028Z,29.67
2022-10-28T14:04:24.208Z,29.62
2022-10-28T14:09:34.058Z,29.40
2022-10-28T14:15:21.700Z,29.22
2022-10-28T14:20:59.334Z,29.25
2022-10-28T14:26:07.252Z,29.10
2022-10-28T14:31:46.509Z,29.15
2022-10-28T14:37:01.408Z,29.05
2022-10-28T14:42:24.734Z,28.90
2022-10-28T14:47:54.333Z,28.62
2022-10-28T14:53:26.826Z,28.49
2022-10-28T14:58:39.585Z,28.04
2022-10-28T15:03:51.286Z,27.37
2022-10-28T15:09:04.039Z,26.80
2022-10-28T15:14:32.497Z,26.31
2022-10-28T15:19:39.617Z,25.28
2022-10-28T15:25:06.684Z,24.22
2022-10-28T15:30:20.974Z,23.41
2022-10-28T15:35:42.580Z,22.74
2022-10-28T15:40:50.493Z,22.15
2022-10-28T15:46:09.792Z,21.72
2022-10-28T15:51:19.607Z,21.37
2022-10-28T15:56:28.319Z,21.04
2022-10-28T16:01:40.010Z,20.65
2022-10-28T16:06:47.697Z,20.18
2022-10-28T16:11:57.626Z,19.73
2022-10-28T16:17:13.755Z,19.32
2022-10-28T16:22:20.974Z,18.93
2022-10-28T16:27:31.029Z,18.59
2022-10-28T16:32:42.159Z,18.27
2022-10-28T16:37:54.739Z,17.97
2022-10-28T16:43:02.648Z,17.71
2022-10-28T16:48:14.247Z,17.52
2022-10-28T16:53:21.858Z,17.37
2022-10-28T16:58:46.886Z,17.13
2022-10-28T17:03:54.387Z,16.88
2022-10-28T17:09:19.312Z,16.61
2022-10-28T17:14:43.931Z,16.35
2022-10-28T17:19:51.278Z,16.07
2022-10-28T17:24:58.226Z,15.83
2022-10-28T17:30:06.113Z,15.69
2022-10-28T17:35:30.782Z,15.57
2022-10-28T17:40:58.545Z,15.41
2022-10-28T17:46:09.503Z,15.24
2022-10-28T17:51:17.602Z,15.04
2022-10-28T17:56:42.510Z,14.85
2022-10-28T18:01:49.703Z,14.65
2022-10-28T18:07:14.605Z,14.54
2022-10-28T18:12:21.620Z,14.42
2022-10-28T18:17:28.804Z,14.30
2022-10-28T18:22:35.949Z,14.16
2022-10-28T18:27:43.727Z,14.00
2022-10-28T18:32:50.865Z,13.89
2022-10-28T18:37:58.139Z,13.79
2022-10-28T18:43:05.323Z,13.66
2022-10-28T18:48:12.515Z,13.52
2022-10-28T18:53:40.914Z,13.36
2022-10-28T18:58:51.531Z,13.21
2022-10-28T19:03:59.928Z,13.05
2022-10-28T19:09:07.633Z,12.88
2022-10-28T19:14:14.808Z,12.76
2022-10-28T19:19:39.513Z,12.62
2022-10-28T19:24:46.661Z,12.42
2022-10-28T19:29:53.693Z,12.28
2022-10-28T19:35:00.697Z,12.17
2022-10-28T19:40:09.288Z,12.01
2022-10-28T19:45:16.576Z,11.86
2022-10-28T19:50:23.596Z,11.72
2022-10-28T19:55:30.658Z,11.61
2022-10-28T20:00:37.657Z,11.51
2022-10-28T20:05:44.589Z,11.42
2022-10-28T20:11:01.117Z,11.29
2022-10-28T20:16:11.815Z,11.15
2022-10-28T20:21:20.703Z,11.07
2022-10-28T20:26:45.140Z,11.02
2022-10-28T20:31:53.006Z,11.00
2022-10-28T20:37:00.005Z,10.94
2022-10-28T20:42:24.583Z,10.89
2022-10-28T20:47:31.577Z,10.84
2022-10-28T20:52:57.101Z,10.77
2022-10-28T20:58:04.358Z,10.71
2022-10-28T21:03:11.589Z,10.68
2022-10-28T21:08:36.532Z,10.65
2022-10-28T21:13:45.296Z,10.61
2022-10-28T21:18:52.362Z,10.57
2022-10-28T21:23:59.561Z,10.52
2022-10-28T21:29:06.836Z,10.46
2022-10-28T21:34:31.469Z,10.36
2022-10-28T21:39:39.892Z,10.33
2022-10-28T21:44:46.936Z,10.32
2022-10-28T21:49:54.475Z,10.30
2022-10-28T21:55:09.680Z,10.27
2022-10-28T22:00:45.493Z,10.22
2022-10-28T22:05:55.335Z,10.17
2022-10-28T22:11:04.025Z,10.12
2022-10-28T22:16:16.197Z,10.09
2022-10-28T22:21:41.245Z,10.11
2022-10-28T22:26:48.322Z,10.12
2022-10-28T22:32:12.869Z,10.07
2022-10-28T22:37:37.970Z,10.02
2022-10-28T22:43:02.656Z,9.97
2022-10-28T22:48:10.189Z,9.98
2022-10-28T22:53:17.332Z,10.00
2022-10-28T22:58:41.902Z,10.07
2022-10-28T23:03:50.655Z,10.14
2022-10-28T23:08:57.848Z,10.15
2022-10-28T23:14:04.848Z,10.15
2022-10-28T23:19:11.892Z,10.16
2022-10-28T23:24:19.119Z,10.15
2022-10-28T23:29:26.261Z,10.17
2022-10-28T23:34:33.348Z,10.16
2022-10-28T23:39:40.806Z,10.11
2022-10-28T23:44:47.818Z,10.04
2022-10-28T23:49:54.923Z,9.99
2022-10-28T23:55:01.977Z,10.00
